sensor_id;sensor_type;location;lat;lon;timestamp;pressure;altitude;pressure_sealevel;temperature;humidity
28079;BME280;15388;42.238;24.684;2022-11-12T00:00:16;100898.41;;;10.41;100.00
28079;BME280;15388;42.238;24.684;2022-11-12T00:02:42;100900.34;;;10.39;100.00
28079;BME280;15388;42.238;24.684;2022-11-12T00:05:07;100894.88;;;10.55;100.00
28079;BME280;15388;42.238;24.684;2022-11-12T00:07:32;100888.69;;;10.55;100.00
28079;BME280;15388;42.238;24.684;2022-11-12T00:09:58;100888.69;;;10.55;100.00
28079;BME280;15388;42.238;24.684;2022-11-12T00:12:23;100884.84;;;10.59;100.00
28079;BME280;15388;42.238;24.684;2022-11-12T00:14:48;100882.44;;;10.41;100.00
28079;BME280;15388;42.238;24.684;2022-11-12T00:17:13;100890.19;;;10.59;100.00
28079;BME280;15388;42.238;24.684;2022-11-12T00:19:39;100880.81;;;10.66;100.00
28079;BME280;15388;42.238;24.684;2022-11-12T00:22:04;100877.97;;;10.69;100.00
28079;BME280;15388;42.238;24.684;2022-11-12T00:24:29;100884.38;;;10.80;100.00
28079;BME280;15388;42.238;24.684;2022-11-12T00:26:55;100884.56;;;10.90;100.00
28079;BME280;15388;42.238;24.684;2022-11-12T00:29:20;100885.84;;;10.97;100.00
28079;BME280;15388;42.238;24.684;2022-11-12T00:31:45;100883.75;;;11.02;100.00
28079;BME280;15388;42.238;24.684;2022-11-12T00:34:10;100890.56;;;11.06;100.00
28079;BME280;15388;42.238;24.684;2022-11-12T00:36:36;100884.88;;;11.11;100.00
28079;BME280;15388;42.238;24.684;2022-11-12T00:39:02;100890.97;;;11.13;100.00
28079;BME280;15388;42.238;24.684;2022-11-12T00:41:27;100886.16;;;11.18;100.00
28079;BME280;15388;42.238;24.684;2022-11-12T00:43:52;100882.34;;;11.23;100.00
28079;BME280;15388;42.238;24.684;2022-11-12T00:46:18;100881.88;;;11.29;100.00
28079;BME280;15388;42.238;24.684;2022-11-12T00:48:43;100874.44;;;11.34;100.00
28079;BME280;15388;42.238;24.684;2022-11-12T00:51:08;100872.28;;;11.39;100.00
28079;BME280;15388;42.238;24.684;2022-11-12T00:53:34;100878.38;;;11.41;100.00
28079;BME280;15388;42.238;24.684;2022-11-12T00:56:00;100877.94;;;11.48;100.00
28079;BME280;15388;42.238;24.684;2022-11-12T00:58:27;100875.28;;;11.48;100.00
28079;BME280;15388;42.238;24.684;2022-11-12T01:00:52;100880.59;;;11.48;100.00
28079;BME280;15388;42.238;24.684;2022-11-12T01:03:17;100868.97;;;11.49;100.00
28079;BME280;15388;42.238;24.684;2022-11-12T01:05:43;100877.69;;;11.51;100.00
28079;BME280;15388;42.238;24.684;2022-11-12T01:08:08;100871.22;;;11.55;100.00
28079;BME280;15388;42.238;24.684;2022-11-12T01:10:34;100878.97;;;11.58;100.00
28079;BME280;15388;42.238;24.684;2022-11-12T01:12:59;100871.59;;;11.62;100.00
28079;BME280;15388;42.238;24.684;2022-11-12T01:15:25;100870.84;;;11.59;100.00
28079;BME280;15388;42.238;24.684;2022-11-12T01:17:50;100868.28;;;11.58;100.00
28079;BME280;15388;42.238;24.684;2022-11-12T01:20:15;100861.16;;;11.58;100.00
28079;BME280;15388;42.238;24.684;2022-11-12T01:22:40;100862.06;;;11.46;100.00
28079;BME280;15388;42.238;24.684;2022-11-12T01:25:06;100858.00;;;11.27;100.00
28079;BME280;15388;42.238;24.684;2022-11-12T01:27:32;100865.28;;;11.12;100.00
28079;BME280;15388;42.238;24.684;2022-11-12T01:29:57;100865.50;;;10.96;100.00
28079;BME280;15388;42.238;24.684;2022-11-12T01:32:23;100869.19;;;10.67;100.00
28079;BME280;15388;42.238;24.684;2022-11-12T01:34:49;100862.94;;;10.55;100.00
28079;BME280;15388;42.238;24.684;2022-11-12T01:37:14;100851.41;;;10.55;100.00
28079;BME280;15388;42.238;24.684;2022-11-12T01:39:40;100857.81;;;10.65;100.00
28079;BME280;15388;42.238;24.684;2022-11-12T01:42:05;100854.50;;;10.75;100.00
28079;BME280;15388;42.238;24.684;2022-11-12T01:44:31;100851.66;;;10.78;100.00
28079;BME280;15388;42.238;24.684;2022-11-12T01:49:38;100856.13;;;10.64;100.00
28079;BME280;15388;42.238;24.684;2022-11-12T01:54:54;100858.91;;;10.35;100.00
28079;BME280;15388;42.238;24.684;2022-11-12T01:57:32;100847.31;;;10.36;100.00
28079;BME280;15388;42.238;24.684;2022-11-12T02:00:03;100849.66;;;10.28;100.00
28079;BME280;15388;42.238;24.684;2022-11-12T02:02:29;100852.19;;;10.29;100.00
28079;BME280;15388;42.238;24.684;2022-11-12T02:04:55;100848.13;;;10.24;100.00
28079;BME280;15388;42.238;24.684;2022-11-12T02:07:21;100853.25;;;10.27;100.00
28079;BME280;15388;42.238;24.684;2022-11-12T02:09:47;100854.97;;;10.28;100.00
28079;BME280;15388;42.238;24.684;2022-11-12T02:12:12;100857.56;;;10.15;100.00
28079;BME280;15388;42.238;24.684;2022-11-12T02:14:58;100851.81;;;10.08;100.00
28079;BME280;15388;42.238;24.684;2022-11-12T02:17:23;100856.25;;;10.07;100.00
28079;BME280;15388;42.238;24.684;2022-11-12T02:19:50;100848.75;;;10.14;100.00
28079;BME280;15388;42.238;24.684;2022-11-12T02:22:15;100843.19;;;10.04;100.00
28079;BME280;15388;42.238;24.684;2022-11-12T02:24:41;100847.25;;;10.10;100.00
28079;BME280;15388;42.238;24.684;2022-11-12T02:27:06;100846.00;;;10.16;100.00
28079;BME280;15388;42.238;24.684;2022-11-12T02:29:31;100843.03;;;10.21;100.00
28079;BME280;15388;42.238;24.684;2022-11-12T02:31:57;100846.22;;;10.26;100.00
28079;BME280;15388;42.238;24.684;2022-11-12T02:34:22;100839.22;;;10.25;100.00
28079;BME280;15388;42.238;24.684;2022-11-12T02:36:47;100837.84;;;10.32;100.00
28079;BME280;15388;42.238;24.684;2022-11-12T02:39:13;100837.06;;;10.30;100.00
28079;BME280;15388;42.238;24.684;2022-11-12T02:41:38;100834.28;;;10.18;100.00
28079;BME280;15388;42.238;24.684;2022-11-12T02:44:03;100839.41;;;10.22;100.00
28079;BME280;15388;42.238;24.684;2022-11-12T02:46:29;100837.91;;;10.17;100.00
28079;BME280;15388;42.238;24.684;2022-11-12T02:48:54;100835.56;;;10.26;100.00
28079;BME280;15388;42.238;24.684;2022-11-12T02:51:19;100839.72;;;10.30;100.00
28079;BME280;15388;42.238;24.684;2022-11-12T02:53:45;100844.31;;;10.28;100.00
28079;BME280;15388;42.238;24.684;2022-11-12T02:56:10;100849.66;;;10.28;100.00
28079;BME280;15388;42.238;24.684;2022-11-12T02:58:35;100846.84;;;10.29;100.00
28079;BME280;15388;42.238;24.684;2022-11-12T03:01:00;100848.47;;;10.32;100.00
28079;BME280;15388;42.238;24.684;2022-11-12T03:03:26;100851.34;;;10.29;100.00
28079;BME280;15388;42.238;24.684;2022-11-12T03:05:55;100850.94;;;10.35;100.00
28079;BME280;15388;42.238;24.684;2022-11-12T03:08:20;100851.00;;;10.48;100.00
28079;BME280;15388;42.238;24.684;2022-11-12T03:10:46;100845.88;;;10.45;100.00
28079;BME280;15388;42.238;24.684;2022-11-12T03:13:11;100849.97;;;10.36;100.00
28079;BME280;15388;42.238;24.684;2022-11-12T03:15:36;100843.38;;;10.29;100.00
28079;BME280;15388;42.238;24.684;2022-11-12T03:18:02;100850.88;;;10.22;100.00
28079;BME280;15388;42.238;24.684;2022-11-12T03:20:27;100859.59;;;10.11;100.00
28079;BME280;15388;42.238;24.684;2022-11-12T03:23:01;100850.66;;;10.12;100.00
28079;BME280;15388;42.238;24.684;2022-11-12T03:25:27;100860.22;;;10.15;100.00
28079;BME280;15388;42.238;24.684;2022-11-12T03:27:59;100854.25;;;10.11;100.00
28079;BME280;15388;42.238;24.684;2022-11-12T03:30:27;100855.63;;;10.04;100.00
28079;BME280;15388;42.238;24.684;2022-11-12T03:32:53;100852.78;;;10.07;100.00
28079;BME280;15388;42.238;24.684;2022-11-12T03:35:19;100845.31;;;10.12;100.00
28079;BME280;15388;42.238;24.684;2022-11-12T03:37:44;100838.94;;;10.15;100.00
28079;BME280;15388;42.238;24.684;2022-11-12T03:40:09;100845.22;;;10.14;100.00
28079;BME280;15388;42.238;24.684;2022-11-12T03:42:35;100846.19;;;10.13;100.00
28079;BME280;15388;42.238;24.684;2022-11-12T03:45:00;100842.47;;;10.15;100.00
28079;BME280;15388;42.238;24.684;2022-11-12T03:47:25;100847.69;;;10.17;100.00
28079;BME280;15388;42.238;24.684;2022-11-12T03:49:51;100849.75;;;9.99;100.00
28079;BME280;15388;42.238;24.684;2022-11-12T03:52:16;100861.19;;;9.86;100.00
28079;BME280;15388;42.238;24.684;2022-11-12T03:54:41;100859.13;;;9.77;100.00
28079;BME280;15388;42.238;24.684;2022-11-12T03:57:07;100856.09;;;9.68;100.00
28079;BME280;15388;42.238;24.684;2022-11-12T03:59:32;100867.69;;;9.67;100.00
28079;BME280;15388;42.238;24.684;2022-11-12T04:01:57;100860.47;;;9.69;100.00
28079;BME280;15388;42.238;24.684;2022-11-12T04:04:23;100864.06;;;9.68;100.00
28079;BME280;15388;42.238;24.684;2022-11-12T04:07:08;100864.75;;;9.72;100.00
28079;BME280;15388;42.238;24.684;2022-11-12T04:09:52;100856.78;;;9.72;100.00
28079;BME280;15388;42.238;24.684;2022-11-12T04:12:17;100854.50;;;9.66;100.00
28079;BME280;15388;42.238;24.684;2022-11-12T04:15:06;100847.16;;;9.69;100.00
28079;BME280;15388;42.238;24.684;2022-11-12T04:17:31;100851.75;;;9.67;100.00
28079;BME280;15388;42.238;24.684;2022-11-12T04:20:15;100855.09;;;9.56;100.00
28079;BME280;15388;42.238;24.684;2022-11-12T04:22:59;100848.75;;;9.59;100.00
28079;BME280;15388;42.238;24.684;2022-11-12T04:25:24;100858.06;;;9.52;100.00
28079;BME280;15388;42.238;24.684;2022-11-12T04:28:08;100864.13;;;9.39;100.00
28079;BME280;15388;42.238;24.684;2022-11-12T04:30:33;100853.59;;;9.23;100.00
28079;BME280;15388;42.238;24.684;2022-11-12T04:32:58;100854.28;;;9.12;100.00
28079;BME280;15388;42.238;24.684;2022-11-12T04:35:24;100858.38;;;9.18;100.00
28079;BME280;15388;42.238;24.684;2022-11-12T04:37:50;100847.06;;;9.14;100.00
28079;BME280;15388;42.238;24.684;2022-11-12T04:42:59;100860.94;;;9.20;100.00
28079;BME280;15388;42.238;24.684;2022-11-12T04:45:44;100862.63;;;9.21;100.00
28079;BME280;15388;42.238;24.684;2022-11-12T04:48:10;100867.94;;;9.35;100.00
28079;BME280;15388;42.238;24.684;2022-11-12T04:50:35;100862.69;;;9.48;100.00
28079;BME280;15388;42.238;24.684;2022-11-12T04:53:01;100857.63;;;9.58;100.00
28079;BME280;15388;42.238;24.684;2022-11-12T04:55:26;100858.75;;;9.68;100.00
28079;BME280;15388;42.238;24.684;2022-11-12T04:57:52;100861.78;;;9.77;100.00
28079;BME280;15388;42.238;24.684;2022-11-12T05:00:17;100868.41;;;9.84;100.00
28079;BME280;15388;42.238;24.684;2022-11-12T05:02:43;100866.94;;;9.93;100.00
28079;BME280;15388;42.238;24.684;2022-11-12T05:05:08;100869.31;;;9.98;100.00
28079;BME280;15388;42.238;24.684;2022-11-12T05:07:34;100868.81;;;10.05;100.00
28079;BME280;15388;42.238;24.684;2022-11-12T05:09:59;100869.56;;;10.07;100.00
28079;BME280;15388;42.238;24.684;2022-11-12T05:12:25;100876.91;;;10.04;100.00
28079;BME280;15388;42.238;24.684;2022-11-12T05:14:50;100879.38;;;10.07;100.00
28079;BME280;15388;42.238;24.684;2022-11-12T05:17:15;100875.66;;;10.10;100.00
28079;BME280;15388;42.238;24.684;2022-11-12T05:19:40;100878.97;;;10.13;100.00
28079;BME280;15388;42.238;24.684;2022-11-12T05:22:06;100886.97;;;10.13;100.00
28079;BME280;15388;42.238;24.684;2022-11-12T05:24:32;100885.06;;;10.01;100.00
28079;BME280;15388;42.238;24.684;2022-11-12T05:26:57;100894.84;;;10.00;100.00
28079;BME280;15388;42.238;24.684;2022-11-12T05:29:23;100891.41;;;9.85;100.00
28079;BME280;15388;42.238;24.684;2022-11-12T05:31:48;100895.00;;;9.84;100.00
28079;BME280;15388;42.238;24.684;2022-11-12T05:34:13;100902.06;;;9.71;100.00
28079;BME280;15388;42.238;24.684;2022-11-12T05:36:38;100912.13;;;9.65;100.00
28079;BME280;15388;42.238;24.684;2022-11-12T05:39:04;100918.94;;;9.69;100.00
28079;BME280;15388;42.238;24.684;2022-11-12T05:41:29;100917.72;;;9.75;100.00
28079;BME280;15388;42.238;24.684;2022-11-12T05:43:55;100917.50;;;9.78;100.00
28079;BME280;15388;42.238;24.684;2022-11-12T05:46:20;100918.19;;;9.82;100.00
28079;BME280;15388;42.238;24.684;2022-11-12T05:48:45;100915.34;;;9.85;100.00
28079;BME280;15388;42.238;24.684;2022-11-12T05:51:11;100924.81;;;9.89;100.00
28079;BME280;15388;42.238;24.684;2022-11-12T05:53:38;100932.59;;;9.92;100.00
28079;BME280;15388;42.238;24.684;2022-11-12T05:56:03;100935.91;;;9.96;100.00
28079;BME280;15388;42.238;24.684;2022-11-12T05:58:29;100951.84;;;9.96;100.00
28079;BME280;15388;42.238;24.684;2022-11-12T06:00:55;100942.28;;;9.93;100.00
28079;BME280;15388;42.238;24.684;2022-11-12T06:03:20;100953.09;;;9.90;100.00
28079;BME280;15388;42.238;24.684;2022-11-12T06:05:46;100954.81;;;9.91;100.00
28079;BME280;15388;42.238;24.684;2022-11-12T06:08:11;100965.06;;;9.98;100.00
28079;BME280;15388;42.238;24.684;2022-11-12T06:10:36;100964.00;;;10.00;100.00
28079;BME280;15388;42.238;24.684;2022-11-12T06:13:02;100967.63;;;9.99;100.00
28079;BME280;15388;42.238;24.684;2022-11-12T06:15:27;100967.34;;;10.04;100.00
28079;BME280;15388;42.238;24.684;2022-11-12T06:17:53;100975.13;;;10.07;100.00
28079;BME280;15388;42.238;24.684;2022-11-12T06:20:19;100979.38;;;10.10;100.00
28079;BME280;15388;42.238;24.684;2022-11-12T06:22:44;100981.19;;;10.09;100.00
28079;BME280;15388;42.238;24.684;2022-11-12T06:25:09;100979.22;;;9.98;100.00
28079;BME280;15388;42.238;24.684;2022-11-12T06:27:35;100982.94;;;9.96;100.00
28079;BME280;15388;42.238;24.684;2022-11-12T06:30:00;100995.28;;;9.97;100.00
28079;BME280;15388;42.238;24.684;2022-11-12T06:32:26;101001.25;;;10.00;100.00
28079;BME280;15388;42.238;24.684;2022-11-12T06:34:51;100993.25;;;10.00;100.00
28079;BME280;15388;42.238;24.684;2022-11-12T06:37:17;101000.59;;;9.97;100.00
28079;BME280;15388;42.238;24.684;2022-11-12T06:39:43;100994.41;;;9.96;100.00
28079;BME280;15388;42.238;24.684;2022-11-12T06:42:08;101003.09;;;9.85;100.00
28079;BME280;15388;42.238;24.684;2022-11-12T06:44:33;101008.22;;;9.88;100.00
28079;BME280;15388;42.238;24.684;2022-11-12T06:47:00;101006.28;;;9.90;100.00
28079;BME280;15388;42.238;24.684;2022-11-12T06:49:25;101008.41;;;9.85;100.00
28079;BME280;15388;42.238;24.684;2022-11-12T06:51:50;101005.84;;;9.84;100.00
28079;BME280;15388;42.238;24.684;2022-11-12T06:54:16;101016.66;;;9.80;100.00
28079;BME280;15388;42.238;24.684;2022-11-12T06:56:41;101012.00;;;9.84;100.00
28079;BME280;15388;42.238;24.684;2022-11-12T06:59:06;101023.41;;;9.86;100.00
28079;BME280;15388;42.238;24.684;2022-11-12T07:01:32;101011.06;;;9.85;100.00
28079;BME280;15388;42.238;24.684;2022-11-12T07:03:57;101017.69;;;9.92;100.00
28079;BME280;15388;42.238;24.684;2022-11-12T07:06:23;101019.94;;;9.99;100.00
28079;BME280;15388;42.238;24.684;2022-11-12T07:08:48;101016.91;;;10.05;100.00
28079;BME280;15388;42.238;24.684;2022-11-12T07:11:14;101018.34;;;10.11;100.00
28079;BME280;15388;42.238;24.684;2022-11-12T07:13:40;101023.75;;;10.09;100.00
28079;BME280;15388;42.238;24.684;2022-11-12T07:16:06;101015.38;;;10.15;100.00
28079;BME280;15388;42.238;24.684;2022-11-12T07:18:32;101025.66;;;10.22;100.00
28079;BME280;15388;42.238;24.684;2022-11-12T07:21:05;101018.97;;;10.29;100.00
28079;BME280;15388;42.238;24.684;2022-11-12T07:23:31;101021.25;;;10.35;100.00
28079;BME280;15388;42.238;24.684;2022-11-12T07:28:26;101014.00;;;10.37;100.00
28079;BME280;15388;42.238;24.684;2022-11-12T07:30:54;101005.56;;;10.45;100.00
28079;BME280;15388;42.238;24.684;2022-11-12T07:33:20;101008.41;;;10.42;100.00
28079;BME280;15388;42.238;24.684;2022-11-12T07:35:45;101018.06;;;10.43;100.00
28079;BME280;15388;42.238;24.684;2022-11-12T07:38:11;101015.72;;;10.38;100.00
28079;BME280;15388;42.238;24.684;2022-11-12T07:40:36;101014.00;;;10.37;100.00
28079;BME280;15388;42.238;24.684;2022-11-12T07:43:01;101023.34;;;10.30;100.00
28079;BME280;15388;42.238;24.684;2022-11-12T07:45:27;101025.81;;;10.33;100.00
28079;BME280;15388;42.238;24.684;2022-11-12T07:47:52;101026.56;;;10.35;100.00
28079;BME280;15388;42.238;24.684;2022-11-12T07:50:17;101027.50;;;10.34;100.00
28079;BME280;15388;42.238;24.684;2022-11-12T07:52:43;101024.50;;;10.26;100.00
28079;BME280;15388;42.238;24.684;2022-11-12T07:55:08;101035.13;;;10.26;100.00
28079;BME280;15388;42.238;24.684;2022-11-12T07:57:33;101035.22;;;10.24;100.00
28079;BME280;15388;42.238;24.684;2022-11-12T07:59:59;101038.66;;;10.26;100.00
28079;BME280;15388;42.238;24.684;2022-11-12T08:02:24;101042.19;;;10.12;100.00
28079;BME280;15388;42.238;24.684;2022-11-12T08:04:49;101043.13;;;10.11;100.00
28079;BME280;15388;42.238;24.684;2022-11-12T08:07:15;101045.63;;;10.00;100.00
28079;BME280;15388;42.238;24.684;2022-11-12T08:09:40;101041.06;;;9.87;100.00
28079;BME280;15388;42.238;24.684;2022-11-12T08:12:06;101038.41;;;9.87;100.00
28079;BME280;15388;42.238;24.684;2022-11-12T08:14:31;101039.16;;;9.89;100.00
28079;BME280;15388;42.238;24.684;2022-11-12T08:16:57;101034.59;;;9.91;100.00
28079;BME280;15388;42.238;24.684;2022-11-12T08:19:22;101035.47;;;9.92;100.00
28079;BME280;15388;42.238;24.684;2022-11-12T08:21:47;101044.41;;;9.91;100.00
28079;BME280;15388;42.238;24.684;2022-11-12T08:24:13;101036.31;;;9.92;100.00
28079;BME280;15388;42.238;24.684;2022-11-12T08:26:38;101037.16;;;9.93;100.00
28079;BME280;15388;42.238;24.684;2022-11-12T08:29:03;101041.63;;;9.92;100.00
28079;BME280;15388;42.238;24.684;2022-11-12T08:31:29;101029.50;;;9.88;100.00
28079;BME280;15388;42.238;24.684;2022-11-12T08:33:55;101045.63;;;9.85;100.00
28079;BME280;15388;42.238;24.684;2022-11-12T08:36:22;101048.66;;;9.93;100.00
28079;BME280;15388;42.238;24.684;2022-11-12T08:38:49;101044.84;;;9.98;100.00
28079;BME280;15388;42.238;24.684;2022-11-12T08:41:16;101053.78;;;9.97;100.00
28079;BME280;15388;42.238;24.684;2022-11-12T08:43:41;101047.59;;;9.96;100.00
28079;BME280;15388;42.238;24.684;2022-11-12T08:46:07;101055.69;;;9.94;100.00
28079;BME280;15388;42.238;24.684;2022-11-12T08:48:33;101057.19;;;9.84;100.00
28079;BME280;15388;42.238;24.684;2022-11-12T08:51:02;101071.06;;;9.89;100.00
28079;BME280;15388;42.238;24.684;2022-11-12T08:53:28;101076.03;;;9.81;100.00
28079;BME280;15388;42.238;24.684;2022-11-12T08:55:54;101068.03;;;9.81;100.00
28079;BME280;15388;42.238;24.684;2022-11-12T08:58:19;101067.94;;;9.83;100.00
28079;BME280;15388;42.238;24.684;2022-11-12T09:00:45;101075.16;;;9.80;100.00
28079;BME280;15388;42.238;24.684;2022-11-12T09:03:14;101071.25;;;9.86;100.00
28079;BME280;15388;42.238;24.684;2022-11-12T09:05:40;101068.22;;;9.92;100.00
28079;BME280;15388;42.238;24.684;2022-11-12T09:08:06;101068.88;;;9.96;100.00
28079;BME280;15388;42.238;24.684;2022-11-12T09:10:32;101061.00;;;9.94;100.00
28079;BME280;15388;42.238;24.684;2022-11-12T09:12:58;101065.38;;;9.96;100.00
28079;BME280;15388;42.238;24.684;2022-11-12T09:15:23;101061.59;;;10.00;100.00
28079;BME280;15388;42.238;24.684;2022-11-12T09:17:55;101058.06;;;9.99;100.00
28079;BME280;15388;42.238;24.684;2022-11-12T09:20:21;101059.47;;;9.90;100.00
28079;BME280;15388;42.238;24.684;2022-11-12T09:22:47;101057.19;;;9.99;100.00
28079;BME280;15388;42.238;24.684;2022-11-12T09:25:12;101063.66;;;9.80;100.00
28079;BME280;15388;42.238;24.684;2022-11-12T09:27:37;101054.06;;;9.77;100.00
28079;BME280;15388;42.238;24.684;2022-11-12T09:30:03;101057.41;;;9.81;100.00
28079;BME280;15388;42.238;24.684;2022-11-12T09:32:28;101055.22;;;9.88;100.00
28079;BME280;15388;42.238;24.684;2022-11-12T09:34:54;101051.31;;;9.93;100.00
28079;BME280;15388;42.238;24.684;2022-11-12T09:37:19;101046.28;;;9.89;100.00
28079;BME280;15388;42.238;24.684;2022-11-12T09:39:44;101048.66;;;9.79;100.00
28079;BME280;15388;42.238;24.684;2022-11-12T09:42:14;101047.50;;;9.83;100.00
28079;BME280;15388;42.238;24.684;2022-11-12T09:44:41;101046.69;;;9.83;100.00
28079;BME280;15388;42.238;24.684;2022-11-12T09:47:28;101045.03;;;9.94;100.00
28079;BME280;15388;42.238;24.684;2022-11-12T09:49:56;101043.16;;;9.97;100.00
28079;BME280;15388;42.238;24.684;2022-11-12T09:52:26;101048.66;;;9.93;100.00
28079;BME280;15388;42.238;24.684;2022-11-12T09:55:06;101050.53;;;9.91;100.00
28079;BME280;15388;42.238;24.684;2022-11-12T09:57:33;101043.34;;;9.93;100.00
28079;BME280;15388;42.238;24.684;2022-11-12T09:59:59;101041.22;;;9.99;100.00
28079;BME280;15388;42.238;24.684;2022-11-12T10:02:30;101041.22;;;9.99;100.00
28079;BME280;15388;42.238;24.684;2022-11-12T10:17:29;101046.97;;;9.92;100.00
28079;BME280;15388;42.238;24.684;2022-11-12T10:19:57;101051.88;;;9.84;100.00
28079;BME280;15388;42.238;24.684;2022-11-12T10:24:53;101036.78;;;9.85;100.00
28079;BME280;15388;42.238;24.684;2022-11-12T10:27:20;101036.50;;;9.89;100.00
28079;BME280;15388;42.238;24.684;2022-11-12T10:29:48;101044.47;;;9.89;100.00
28079;BME280;15388;42.238;24.684;2022-11-12T10:32:16;101047.22;;;9.73;100.00
28079;BME280;15388;42.238;24.684;2022-11-12T10:34:41;101050.44;;;9.78;100.00
28079;BME280;15388;42.238;24.684;2022-11-12T10:39:36;101052.47;;;9.89;100.00
28079;BME280;15388;42.238;24.684;2022-11-12T10:44:28;101052.47;;;9.89;100.00
28079;BME280;15388;42.238;24.684;2022-11-12T10:46:53;101049.72;;;9.91;100.00
28079;BME280;15388;42.238;24.684;2022-11-12T10:49:38;101054.53;;;9.84;100.00
28079;BME280;15388;42.238;24.684;2022-11-12T10:52:03;101053.59;;;10.00;100.00
28079;BME280;15388;42.238;24.684;2022-11-12T10:54:35;101050.16;;;9.98;100.00
28079;BME280;15388;42.238;24.684;2022-11-12T10:57:34;101054.44;;;10.00;100.00
28079;BME280;15388;42.238;24.684;2022-11-12T11:02:36;101035.72;;;10.02;100.00
28079;BME280;15388;42.238;24.684;2022-11-12T11:07:49;101032.88;;;9.90;100.00
28079;BME280;15388;42.238;24.684;2022-11-12T11:10:25;101039.72;;;9.94;100.00
28079;BME280;15388;42.238;24.684;2022-11-12T11:13:06;101047.88;;;10.06;100.00
28079;BME280;15388;42.238;24.684;2022-11-12T11:15:32;101034.47;;;10.07;100.00
28079;BME280;15388;42.238;24.684;2022-11-12T11:17:57;101027.19;;;10.11;100.00
28079;BME280;15388;42.238;24.684;2022-11-12T11:23:34;101027.00;;;10.00;100.00
28079;BME280;15388;42.238;24.684;2022-11-12T11:25:34;101039.91;;;9.91;100.00
28079;BME280;15388;42.238;24.684;2022-11-12T11:30:55;101049.03;;;9.87;100.00
28079;BME280;15388;42.238;24.684;2022-11-12T11:33:31;101046.97;;;9.92;100.00
28079;BME280;15388;42.238;24.684;2022-11-12T11:48:54;101027.19;;;9.97;100.00
28079;BME280;15388;42.238;24.684;2022-11-12T11:56:26;101020.81;;;9.99;100.00
28079;BME280;15388;42.238;24.684;2022-11-12T12:01:53;101024.25;;;10.01;100.00
28079;BME280;15388;42.238;24.684;2022-11-12T12:10:05;101025.28;;;9.84;100.00
28079;BME280;15388;42.238;24.684;2022-11-12T12:16:04;101022.16;;;9.77;100.00
28079;BME280;15388;42.238;24.684;2022-11-12T12:23:28;101019.41;;;9.79;100.00
28079;BME280;15388;42.238;24.684;2022-11-12T12:25:45;101020.84;;;9.70;100.00
28079;BME280;15388;42.238;24.684;2022-11-12T12:28:27;101025.59;;;9.79;100.00
28079;BME280;15388;42.238;24.684;2022-11-12T12:30:57;101018.53;;;9.78;100.00
28079;BME280;15388;42.238;24.684;2022-11-12T12:36:01;101014.28;;;9.76;100.00
28079;BME280;15388;42.238;24.684;2022-11-12T12:38:29;101016.94;;;9.76;100.00
28079;BME280;15388;42.238;24.684;2022-11-12T12:41:11;101014.00;;;9.66;100.00
28079;BME280;15388;42.238;24.684;2022-11-12T12:43:45;101011.44;;;9.64;100.00
28079;BME280;15388;42.238;24.684;2022-11-12T12:46:13;100999.47;;;9.57;100.00
28079;BME280;15388;42.238;24.684;2022-11-12T12:48:41;101001.00;;;9.61;100.00
28079;BME280;15388;42.238;24.684;2022-11-12T12:51:08;101008.00;;;9.62;100.00
28079;BME280;15388;42.238;24.684;2022-11-12T12:53:34;101002.91;;;9.59;100.00
28079;BME280;15388;42.238;24.684;2022-11-12T12:56:00;100993.09;;;9.60;100.00
28079;BME280;15388;42.238;24.684;2022-11-12T13:00:59;100999.47;;;9.57;100.00
28079;BME280;15388;42.238;24.684;2022-11-12T13:06:38;100996.72;;;9.59;100.00
28079;BME280;15388;42.238;24.684;2022-11-12T13:32:34;100992.63;;;9.38;100.00
28079;BME280;15388;42.238;24.684;2022-11-12T13:35:43;100988.53;;;9.33;100.00
28079;BME280;15388;42.238;24.684;2022-11-12T13:40:29;100985.22;;;9.43;100.00
28079;BME280;15388;42.238;24.684;2022-11-12T13:43:08;100986.53;;;9.36;100.00
28079;BME280;15388;42.238;24.684;2022-11-12T13:45:45;100978.38;;;9.39;100.00
28079;BME280;15388;42.238;24.684;2022-11-12T13:51:03;100985.88;;;9.33;100.00
28079;BME280;15388;42.238;24.684;2022-11-12T13:53:30;100983.69;;;9.39;100.00
28079;BME280;15388;42.238;24.684;2022-11-12T13:55:56;100980.09;;;9.40;100.00
28079;BME280;15388;42.238;24.684;2022-11-12T13:58:25;100980.69;;;9.46;100.00
28079;BME280;15388;42.238;24.684;2022-11-12T14:00:51;100984.06;;;9.48;100.00
28079;BME280;15388;42.238;24.684;2022-11-12T14:03:17;100986.47;;;9.52;100.00
28079;BME280;15388;42.238;24.684;2022-11-12T14:05:45;100992.25;;;9.45;100.00
28079;BME280;15388;42.238;24.684;2022-11-12T14:08:29;100996.81;;;9.42;100.00
28079;BME280;15388;42.238;24.684;2022-11-12T14:11:04;100997.44;;;9.46;100.00
28079;BME280;15388;42.238;24.684;2022-11-12T14:13:41;100996.53;;;9.47;100.00
28079;BME280;15388;42.238;24.684;2022-11-12T14:21:05;100984.66;;;9.67;100.00
28079;BME280;15388;42.238;24.684;2022-11-12T14:23:35;100996.34;;;9.65;100.00
28079;BME280;15388;42.238;24.684;2022-11-12T14:26:01;100998.41;;;9.60;100.00
28079;BME280;15388;42.238;24.684;2022-11-12T14:28:33;100994.72;;;9.62;100.00
28079;BME280;15388;42.238;24.684;2022-11-12T14:30:59;100986.72;;;9.62;100.00
28079;BME280;15388;42.238;24.684;2022-11-12T14:33:26;100981.03;;;9.68;100.00